Time;durP1;ratioP1;P1;durP2;ratioP2;P2;SDS_P1;SDS_P2;PMS_P1;PMS_P2;Temp;Humidity;BMP_temperature;BMP_pressure;BME280_temperature;BME280_humidity;BME280_pressure;Samples;Min_cycle;Max_cycle;Signal;HPM_P1;HPM_P2
2022/07/11 00:01:03;;;;;;;5.00;3.42;;;;;;;14.05;100.00;101359.22;5037798;28;20095;-67
2022/07/11 00:03:28;;;;;;;5.35;3.15;;;;;;;13.95;100.00;101354.47;5047587;28;20036;-67
2022/07/11 00:05:54;;;;;;;5.32;3.20;;;;;;;13.83;100.00;101347.97;5041521;28;20828;-67
2022/07/11 00:08:19;;;;;;;4.25;2.80;;;;;;;13.69;100.00;101345.13;5043424;28;20056;-67
2022/07/11 00:10:46;;;;;;;4.15;2.85;;;;;;;13.63;100.00;101343.66;5041388;28;20863;-67
2022/07/11 00:13:12;;;;;;;5.15;3.63;;;;;;;13.65;100.00;101359.44;5034076;28;20031;-67
2022/07/11 00:15:37;;;;;;;9.07;4.10;;;;;;;13.62;100.00;101351.66;5053827;28;20029;-67
2022/07/11 00:18:03;;;;;;;5.55;3.55;;;;;;;13.55;100.00;101343.13;5035573;28;20807;-67
2022/07/11 00:20:28;;;;;;;6.25;3.97;;;;;;;13.65;100.00;101360.25;5024171;28;20037;-66
2022/07/11 00:22:54;;;;;;;7.00;4.00;;;;;;;13.37;100.00;101306.19;5045705;28;20045;-67
2022/07/11 00:25:20;;;;;;;8.75;4.00;;;;;;;13.68;100.00;101359.28;5056199;28;20103;-67
2022/07/11 00:27:45;;;;;;;4.85;3.53;;;;;;;13.65;100.00;101351.50;5053398;28;20028;-68
2022/07/11 00:30:11;;;;;;;6.75;3.65;;;;;;;13.63;100.00;101346.28;5042764;28;20056;-67
2022/07/11 00:32:36;;;;;;;5.55;3.40;;;;;;;13.57;100.00;101337.81;5032282;28;20136;-67
2022/07/11 00:35:02;;;;;;;7.75;3.70;;;;;;;13.61;100.00;101353.44;5047115;28;20105;-67
2022/07/11 00:37:27;;;;;;;7.40;4.18;;;;;;;13.57;100.00;101349.22;5046876;28;20028;-67
2022/07/11 00:39:53;;;;;;;5.22;3.30;;;;;;;13.59;100.00;101350.00;5032181;28;20035;-67
2022/07/11 00:42:18;;;;;;;7.07;4.15;;;;;;;13.47;100.00;101325.97;5045890;28;20771;-67
2022/07/11 00:44:44;;;;;;;6.78;4.00;;;;;;;13.23;100.00;101294.50;5041260;28;20028;-67
2022/07/11 00:47:09;;;;;;;6.45;4.38;;;;;;;13.46;100.00;101337.44;5036333;28;20556;-67
2022/07/11 00:49:34;;;;;;;6.43;3.47;;;;;;;13.20;100.00;101302.56;5049199;28;20070;-67
2022/07/11 00:52:00;;;;;;;6.47;3.60;;;;;;;13.39;100.00;101333.38;5042955;28;20051;-67
2022/07/11 00:54:27;;;;;;;6.40;4.03;;;;;;;13.22;100.00;101298.06;5049451;28;20105;-67
2022/07/11 00:56:52;;;;;;;6.28;3.78;;;;;;;13.36;100.00;101322.97;5028783;28;20985;-67
2022/07/11 00:59:18;;;;;;;6.40;3.95;;;;;;;13.31;100.00;101316.09;5034891;28;20095;-67
2022/07/11 01:01:44;;;;;;;6.10;3.65;;;;;;;13.35;100.00;101318.63;5053784;27;20033;-67
2022/07/11 01:04:10;;;;;;;5.95;3.70;;;;;;;13.30;100.00;101309.13;5034332;28;20227;-66
2022/07/11 01:06:35;;;;;;;8.88;3.60;;;;;;;13.22;100.00;101300.72;5018587;28;20032;-66
2022/07/11 01:09:00;;;;;;;6.68;3.95;;;;;;;13.30;100.00;101327.63;5052768;28;20520;-66
2022/07/11 01:11:26;;;;;;;7.30;4.18;;;;;;;13.24;100.00;101330.53;5025679;28;20832;-66
2022/07/11 01:13:52;;;;;;;7.35;4.05;;;;;;;13.12;100.00;101311.75;5030692;28;20032;-66
2022/07/11 01:16:18;;;;;;;5.45;3.65;;;;;;;13.21;100.00;101325.38;5035216;28;20064;-66
2022/07/11 01:18:49;;;;;;;6.82;3.85;;;;;;;13.21;100.00;101322.75;5047236;28;20178;-67
2022/07/11 01:21:28;;;;;;;9.65;3.92;;;;;;;13.13;100.00;101309.06;5040628;28;20121;-67
2022/07/11 01:23:56;;;;;;;7.85;4.43;;;;;;;13.17;100.00;101315.91;5032756;28;20465;-67
2022/07/11 01:26:22;;;;;;;5.88;4.13;;;;;;;13.15;100.00;101315.13;5028187;28;20024;-67
2022/07/11 01:28:48;;;;;;;7.85;4.07;;;;;;;13.14;100.00;101313.44;5032245;28;20465;-67
2022/07/11 01:31:14;;;;;;;6.38;4.25;;;;;;;13.01;100.00;101296.38;5034339;28;20073;-67
2022/07/11 01:33:40;;;;;;;7.07;4.65;;;;;;;12.98;100.00;101307.06;5044180;28;20035;-67
2022/07/11 01:36:06;;;;;;;7.95;4.65;;;;;;;12.87;100.00;101282.13;5027847;28;20036;-67
2022/07/11 01:38:31;;;;;;;5.45;3.92;;;;;;;12.95;100.00;101301.94;5036178;28;20028;-67
2022/07/11 01:40:57;;;;;;;6.90;4.20;;;;;;;13.00;100.00;101315.78;5063738;28;20065;-67
2022/07/11 01:43:22;;;;;;;5.85;4.00;;;;;;;12.94;100.00;101300.25;5063009;28;20039;-67
2022/07/11 01:45:55;;;;;;;6.20;4.68;;;;;;;12.98;100.00;101312.34;5054237;28;20047;-66
2022/07/11 01:48:20;;;;;;;8.57;3.72;;;;;;;12.94;100.00;101307.31;5065553;28;20679;-66
2022/07/11 01:50:47;;;;;;;6.40;4.15;;;;;;;12.85;100.00;101295.38;5044754;28;20087;-67
2022/07/11 01:53:12;;;;;;;5.88;4.38;;;;;;;12.91;100.00;101308.28;5052031;28;20020;-67
2022/07/11 01:55:38;;;;;;;8.25;4.50;;;;;;;12.84;100.00;101300.72;5031659;28;20033;-67
2022/07/11 01:58:03;;;;;;;8.07;4.47;;;;;;;12.93;100.00;101319.63;5032597;28;20072;-67
2022/07/11 02:00:29;;;;;;;5.75;4.13;;;;;;;12.85;100.00;101310.34;5032706;28;20037;-67
2022/07/11 02:02:54;;;;;;;5.57;4.07;;;;;;;12.87;100.00;101319.91;5034850;28;20068;-67
2022/07/11 02:05:19;;;;;;;8.13;4.80;;;;;;;12.84;100.00;101312.16;5028026;28;21477;-67
2022/07/11 02:10:29;;;;;;;7.00;4.33;;;;;;;12.36;100.00;101237.84;5024873;28;20047;-67
2022/07/11 02:12:58;;;;;;;5.40;4.00;;;;;;;12.79;100.00;101319.38;5025872;28;20287;-67
2022/07/11 02:15:23;;;;;;;6.65;4.15;;;;;;;12.77;100.00;101324.72;5032534;28;20089;-67
2022/07/11 02:17:48;;;;;;;5.40;4.15;;;;;;;12.65;100.00;101300.69;5034574;28;20095;-68
2022/07/11 02:20:14;;;;;;;6.75;4.20;;;;;;;12.66;100.00;101305.03;5037592;28;20028;-66
2022/07/11 02:22:39;;;;;;;7.68;4.97;;;;;;;12.69;100.00;101310.19;5040877;28;20136;-66
2022/07/11 02:25:05;;;;;;;8.38;4.10;;;;;;;12.67;100.00;101318.13;5031420;28;20040;-66
2022/07/11 02:27:30;;;;;;;9.52;5.25;;;;;;;12.65;100.00;101313.88;5040171;28;20673;-67
2022/07/11 02:29:56;;;;;;;5.88;4.07;;;;;;;12.64;100.00;101312.19;5030082;28;20040;-67
2022/07/11 02:32:21;;;;;;;8.02;4.18;;;;;;;12.62;100.00;101316.63;5053902;28;20020;-66
2022/07/11 02:34:46;;;;;;;7.95;4.50;;;;;;;12.61;100.00;101317.56;5024701;28;20155;-66
2022/07/11 02:37:12;;;;;;;6.10;4.53;;;;;;;12.57;100.00;101316.00;5035896;28;20029;-67
2022/07/11 02:39:37;;;;;;;6.90;4.45;;;;;;;12.57;100.00;101318.63;5040947;28;20513;-67
2022/07/11 02:42:03;;;;;;;6.93;4.32;;;;;;;12.51;100.00;101308.34;5027046;28;20039;-67
2022/07/11 02:44:28;;;;;;;6.78;4.28;;;;;;;12.47;100.00;101309.41;5041094;28;20828;-67
2022/07/11 02:46:54;;;;;;;7.57;4.63;;;;;;;12.30;100.00;101291.69;5049611;28;20804;-67
2022/07/11 02:49:19;;;;;;;6.88;4.70;;;;;;;12.15;100.00;101271.25;5031078;28;20029;-66
2022/07/11 02:51:45;;;;;;;6.35;4.40;;;;;;;12.33;100.00;101307.38;5028854;28;20024;-66
2022/07/11 02:54:10;;;;;;;6.78;4.82;;;;;;;12.42;100.00;101330.69;5044045;28;20885;-66
2022/07/11 02:56:35;;;;;;;8.23;5.00;;;;;;;12.38;100.00;101315.06;5042193;28;20467;-66
2022/07/11 02:59:01;;;;;;;6.07;4.70;;;;;;;12.25;100.00;101298.91;5041936;28;20153;-67
2022/07/11 03:01:27;;;;;;;7.63;5.05;;;;;;;12.27;100.00;101305.84;5038717;28;20911;-66
2022/07/11 03:03:52;;;;;;;10.30;5.82;;;;;;;12.37;100.00;101323.91;5030195;28;20059;-66
2022/07/11 03:06:17;;;;;;;7.68;5.25;;;;;;;12.27;100.00;101324.28;5045161;28;20125;-66
2022/07/11 03:08:43;;;;;;;9.77;5.78;;;;;;;12.28;100.00;101323.38;5049673;28;20139;-66
2022/07/11 03:11:08;;;;;;;8.07;5.57;;;;;;;12.26;100.00;101322.59;5034242;28;20400;-66
2022/07/11 03:13:35;;;;;;;8.50;5.50;;;;;;;12.25;100.00;101323.50;5039778;28;20044;-66
2022/07/11 03:16:01;;;;;;;8.70;5.35;;;;;;;12.21;100.00;101326.31;5043980;28;20495;-66
2022/07/11 03:18:27;;;;;;;7.75;5.00;;;;;;;12.23;100.00;101327.13;5046687;28;20078;-66
2022/07/11 03:20:53;;;;;;;10.70;5.15;;;;;;;12.12;100.00;101317.03;5044935;28;20020;-67
2022/07/11 03:23:18;;;;;;;6.43;4.60;;;;;;;12.08;100.00;101317.22;5037082;28;20028;-66
2022/07/11 03:25:44;;;;;;;7.70;5.30;;;;;;;11.92;100.00;101295.94;5034345;28;20119;-67
2022/07/11 03:28:09;;;;;;;6.72;4.97;;;;;;;12.11;100.00;101328.47;5051024;28;20035;-66
2022/07/11 03:30:35;;;;;;;6.50;4.78;;;;;;;11.88;100.00;101288.22;5030423;28;20557;-67
2022/07/11 03:33:00;;;;;;;7.38;4.93;;;;;;;11.91;100.00;101293.34;5035806;28;20032;-66
2022/07/11 03:35:40;;;;;;;8.57;4.57;;;;;;;12.11;100.00;101328.47;5023581;28;20071;-67
2022/07/11 03:38:06;;;;;;;8.27;5.40;;;;;;;11.99;100.00;101312.34;5038589;28;20140;-67
2022/07/11 03:40:31;;;;;;;7.22;5.53;;;;;;;12.06;100.00;101330.47;5041824;28;20861;-67
2022/07/11 03:42:57;;;;;;;8.40;5.50;;;;;;;12.03;100.00;101319.19;5021949;28;20044;-67
2022/07/11 03:45:22;;;;;;;6.88;5.18;;;;;;;12.06;100.00;101330.47;5032726;28;20114;-67
2022/07/11 03:47:48;;;;;;;10.55;5.78;;;;;;;12.05;100.00;101334.00;5014656;28;20032;-67
2022/07/11 03:50:14;;;;;;;7.63;5.68;;;;;;;11.87;100.00;101318.09;5034257;28;20539;-67
2022/07/11 03:52:39;;;;;;;7.45;5.47;;;;;;;12.01;100.00;101332.41;5043372;28;20024;-67
2022/07/11 03:55:05;;;;;;;7.65;5.60;;;;;;;12.04;100.00;101331.44;5042888;28;20182;-67
2022/07/11 03:57:30;;;;;;;8.45;6.03;;;;;;;12.14;100.00;101338.88;5038763;28;20097;-67
2022/07/11 03:59:56;;;;;;;7.93;5.50;;;;;;;12.13;100.00;101333.72;5037320;28;20830;-67
2022/07/11 04:02:21;;;;;;;7.88;5.70;;;;;;;12.20;100.00;101341.25;5033237;28;20035;-67
2022/07/11 04:04:47;;;;;;;15.30;7.32;;;;;;;12.24;100.00;101337.59;5025018;28;20021;-68
2022/07/11 04:07:13;;;;;;;11.70;6.53;;;;;;;12.30;100.00;101325.94;5035123;28;20831;-68
2022/07/11 04:09:38;;;;;;;10.05;6.20;;;;;;;12.43;100.00;101339.47;5041888;28;20047;-68
2022/07/11 04:12:04;;;;;;;10.52;6.55;;;;;;;12.53;100.00;101341.63;5048340;28;20040;-68
2022/07/11 04:14:29;;;;;;;9.73;6.30;;;;;;;12.59;100.00;101330.81;5030635;28;20035;-67
2022/07/11 04:16:54;;;;;;;10.23;6.93;;;;;;;12.73;100.00;101333.72;5027765;28;20027;-67
2022/07/11 04:19:20;;;;;;;9.45;6.50;;;;;;;12.83;100.00;101334.16;5048033;27;20033;-67
2022/07/11 04:21:45;;;;;;;9.60;8.30;;;;;;;12.89;100.00;101333.88;5019623;28;20033;-67
2022/07/11 04:24:11;;;;;;;9.23;7.35;;;;;;;13.00;100.00;101342.19;5050544;28;20031;-67
2022/07/11 04:26:36;;;;;;;11.30;7.40;;;;;;;13.01;100.00;101333.31;5045972;28;20052;-67
2022/07/11 04:29:02;;;;;;;10.00;8.32;;;;;;;12.76;100.00;101285.25;5022545;28;20025;-67
2022/07/11 04:31:27;;;;;;;13.68;9.40;;;;;;;13.16;100.00;101337.09;5014947;28;20904;-67
2022/07/11 04:33:53;;;;;;;12.45;8.65;;;;;;;13.17;100.00;101342.31;5014651;28;20907;-67
2022/07/11 04:36:18;;;;;;;9.43;8.43;;;;;;;13.15;100.00;101322.16;5021454;28;20806;-67
2022/07/11 04:38:44;;;;;;;11.10;8.77;;;;;;;13.09;100.00;101310.13;5024278;28;20028;-67
2022/07/11 04:41:10;;;;;;;15.70;11.55;;;;;;;13.29;100.00;101333.81;5024439;28;20986;-67
2022/07/11 04:43:36;;;;;;;20.60;13.10;;;;;;;13.27;100.00;101330.41;5027000;28;20030;-67
2022/07/11 04:46:04;;;;;;;16.23;12.45;;;;;;;13.41;100.00;101336.81;5029391;28;20025;-67
2022/07/11 04:48:30;;;;;;;16.85;12.65;;;;;;;13.50;100.00;101341.66;5053147;28;20033;-67
2022/07/11 04:50:55;;;;;;;23.40;15.55;;;;;;;13.60;100.00;101348.22;5042469;28;20995;-67
2022/07/11 04:53:21;;;;;;;20.77;15.10;;;;;;;13.70;100.00;101339.78;5039134;28;20027;-67
2022/07/11 04:55:46;;;;;;;21.95;14.10;;;;;;;13.77;100.00;101332.41;5064044;28;20043;-67
2022/07/11 04:58:11;;;;;;;24.27;16.75;;;;;;;13.96;100.00;101330.59;5064163;28;20098;-67
2022/07/11 05:00:37;;;;;;;24.73;16.20;;;;;;;14.13;100.00;101337.69;5068732;28;20158;-67
2022/07/11 05:03:02;;;;;;;19.70;16.08;;;;;;;14.17;100.00;101326.88;5068052;28;20435;-67
2022/07/11 05:05:28;;;;;;;20.42;15.90;;;;;;;14.08;100.00;101300.91;5070879;28;20028;-67
2022/07/11 05:07:54;;;;;;;20.20;13.73;;;;;;;14.32;100.00;101338.50;5068589;28;20031;-67
2022/07/11 05:10:19;;;;;;;21.88;16.00;;;;;;;14.40;100.00;101344.25;5060224;28;20111;-67
2022/07/11 05:12:45;;;;;;;20.95;15.63;;;;;;;14.29;100.00;101313.06;5066937;28;20349;-67
2022/07/11 05:15:10;;;;;;;17.30;15.10;;;;;;;14.46;100.00;101335.19;5062291;28;20070;-67
2022/07/11 05:17:35;;;;;;;18.55;15.32;;;;;;;14.47;100.00;101343.00;5055033;28;20487;-67
2022/07/11 05:20:01;;;;;;;19.48;14.43;;;;;;;14.51;100.00;101349.88;5052509;28;20029;-67
2022/07/11 05:22:26;;;;;;;17.17;15.15;;;;;;;14.58;100.00;101343.31;5052923;28;20035;-67
2022/07/11 05:24:52;;;;;;;24.80;16.67;;;;;;;14.63;100.00;101343.09;5058738;28;20040;-67
2022/07/11 05:27:17;;;;;;;21.27;15.90;;;;;;;14.69;100.00;101353.34;5058647;28;20477;-67
2022/07/11 05:29:43;;;;;;;17.15;15.30;;;;;;;14.73;100.00;101355.78;5062477;28;20152;-67
2022/07/11 05:32:09;;;;;;;18.15;15.02;;;;;;;14.68;100.00;101341.91;5057719;28;20060;-67
2022/07/11 05:34:34;;;;;;;16.08;13.65;;;;;;;14.79;100.00;101355.44;5072877;28;20036;-67
2022/07/11 05:37:00;;;;;;;17.98;14.40;;;;;;;14.87;100.00;101357.66;5071045;28;20086;-67
2022/07/11 05:39:25;;;;;;;19.67;13.63;;;;;;;14.89;100.00;101355.81;5059680;28;20112;-67
2022/07/11 05:41:51;;;;;;;21.27;13.05;;;;;;;14.96;100.00;101357.22;5059598;28;20025;-67
2022/07/11 05:44:18;;;;;;;15.75;12.75;;;;;;;15.04;100.00;101357.63;5050455;28;20029;-67
2022/07/11 05:46:44;;;;;;;20.92;12.77;;;;;;;15.20;100.00;101371.78;5030741;28;20886;-67
2022/07/11 05:49:09;;;;;;;16.65;11.93;;;;;;;15.17;100.00;101376.41;5061877;28;20023;-67
2022/07/11 05:51:36;;;;;;;16.00;12.05;;;;;;;15.22;100.00;101380.50;5068245;28;20479;-67
2022/07/11 05:54:02;;;;;;;14.73;11.98;;;;;;;15.23;100.00;101387.50;5073310;28;20546;-67
2022/07/11 05:56:27;;;;;;;19.67;12.45;;;;;;;15.22;100.00;101377.84;5062426;28;20024;-67
2022/07/11 05:58:53;;;;;;;19.23;12.93;;;;;;;15.27;100.00;101377.59;5072598;28;20029;-67
2022/07/11 06:01:18;;;;;;;13.20;11.00;;;;;;;15.30;100.00;101380.09;5062542;28;20467;-67
2022/07/11 06:03:43;;;;;;;14.10;9.52;;;;;;;15.38;100.00;101375.22;5068721;28;20886;-67
2022/07/11 06:06:10;;;;;;;22.10;11.07;;;;;;;15.44;100.00;101366.97;5044581;28;20020;-67
2022/07/11 06:08:42;;;;;;;13.77;10.38;;;;;;;15.52;100.00;101383.31;5056423;28;20037;-67
2022/07/11 06:11:12;;;;;;;13.90;10.40;;;;;;;15.57;100.00;101386.56;5057405;28;20028;-67
2022/07/11 06:13:39;;;;;;;11.50;8.95;;;;;;;15.62;100.00;101381.00;5056966;28;20047;-67
2022/07/11 06:16:06;;;;;;;13.50;8.30;;;;;;;15.71;100.00;101385.81;5061227;28;20054;-67
2022/07/11 06:18:32;;;;;;;16.60;8.05;;;;;;;15.80;100.00;101379.97;5070807;28;20040;-67
2022/07/11 06:20:57;;;;;;;10.15;7.97;;;;;;;15.87;100.00;101378.69;5071983;28;20506;-67
2022/07/11 06:23:23;;;;;;;14.32;8.52;;;;;;;15.99;100.00;101375.34;5063669;28;20033;-67
2022/07/11 06:25:48;;;;;;;11.25;7.78;;;;;;;16.12;100.00;101386.13;5072136;28;20486;-67
2022/07/11 06:28:13;;;;;;;15.60;7.93;;;;;;;16.21;100.00;101396.19;5067353;28;20036;-67
2022/07/11 06:30:39;;;;;;;20.35;7.90;;;;;;;16.24;100.00;101383.63;5056913;28;20028;-67
2022/07/11 06:33:04;;;;;;;16.70;6.18;;;;;;;16.18;100.00;101356.59;5055090;28;20586;-67
2022/07/11 06:35:30;;;;;;;11.10;6.78;;;;;;;16.49;100.00;101387.50;5059331;28;20037;-68
2022/07/11 06:37:56;;;;;;;10.32;6.38;;;;;;;16.60;100.00;101391.25;5046089;28;20069;-67
2022/07/11 06:40:22;;;;;;;10.77;5.95;;;;;;;16.69;100.00;101390.72;5066686;28;20024;-67
2022/07/11 06:42:49;;;;;;;11.13;7.53;;;;;;;16.78;100.00;101394.59;5079335;28;20382;-67
2022/07/11 06:45:14;;;;;;;11.30;8.07;;;;;;;16.76;100.00;101386.72;5057655;28;20037;-67
2022/07/11 06:47:40;;;;;;;15.15;5.45;;;;;;;16.88;100.00;101385.13;5059255;28;20033;-67
2022/07/11 06:50:06;;;;;;;12.80;5.05;;;;;;;16.96;100.00;101387.34;5059131;28;20028;-67
2022/07/11 06:52:31;;;;;;;7.47;4.25;;;;;;;17.01;100.00;101377.28;5054897;28;20137;-67
2022/07/11 06:54:58;;;;;;;8.55;4.75;;;;;;;16.86;100.00;101347.22;5054142;28;20046;-67
2022/07/11 06:57:23;;;;;;;12.82;5.95;;;;;;;16.83;100.00;101344.75;5065675;28;20685;-67
2022/07/11 06:59:49;;;;;;;8.38;5.50;;;;;;;17.17;100.00;101392.16;5048348;28;20069;-67
2022/07/11 07:02:14;;;;;;;9.13;4.03;;;;;;;17.22;100.00;101390.09;5047751;28;20054;-67
2022/07/11 07:04:39;;;;;;;12.10;5.60;;;;;;;17.21;100.00;101393.69;5027684;28;20033;-67
2022/07/11 07:07:05;;;;;;;6.82;4.22;;;;;;;17.19;100.00;101395.59;5051935;28;20872;-67
2022/07/11 07:09:30;;;;;;;7.70;3.97;;;;;;;17.23;100.00;101402.44;5056199;28;20123;-67
2022/07/11 07:11:56;;;;;;;8.15;5.50;;;;;;;17.07;100.00;101417.59;5071700;28;20044;-67
2022/07/11 07:14:21;;;;;;;5.93;4.05;;;;;;;17.01;100.00;101407.34;5062915;28;20028;-67
2022/07/11 07:16:47;;;;;;;6.03;3.25;;;;;;;17.04;100.00;101412.47;5056388;28;20032;-67
2022/07/11 07:19:13;;;;;;;7.65;4.25;;;;;;;16.96;100.00;101385.53;5051847;28;20032;-67
2022/07/11 07:21:38;;;;;;;6.55;3.38;;;;;;;17.06;100.00;101405.28;5056324;28;20028;-67
2022/07/11 07:24:05;;;;;;;4.60;3.33;;;;;;;17.05;100.00;101392.94;5047933;28;20074;-67
2022/07/11 07:26:31;;;;;;;8.25;3.30;;;;;;;17.06;100.00;101405.28;5076271;28;20120;-67
2022/07/11 07:28:56;;;;;;;7.90;4.15;;;;;;;16.98;100.00;101380.97;5059018;28;20024;-67
2022/07/11 07:31:22;;;;;;;5.80;2.95;;;;;;;17.09;100.00;101391.81;5066228;28;20025;-67
2022/07/11 07:33:48;;;;;;;5.78;2.35;;;;;;;17.19;100.00;101392.94;5048932;28;20040;-67
2022/07/11 07:36:14;;;;;;;5.32;2.88;;;;;;;17.16;100.00;101384.31;5044225;28;20028;-67
2022/07/11 07:38:41;;;;;;;6.43;2.75;;;;;;;16.96;100.00;101372.28;5058869;28;20035;-67
2022/07/11 07:41:07;;;;;;;4.55;2.95;;;;;;;17.16;100.00;101401.13;5056992;28;20109;-67
2022/07/11 07:43:32;;;;;;;5.95;2.63;;;;;;;17.25;100.00;101395.22;5064863;28;20141;-67
2022/07/11 07:45:57;;;;;;;5.13;2.10;;;;;;;17.42;100.00;101396.81;5058051;28;20043;-67
2022/07/11 07:48:23;;;;;;;5.45;2.53;;;;;;;17.50;100.00;101388.38;5060167;28;20868;-67
2022/07/11 07:50:48;;;;;;;8.75;3.60;;;;;;;17.57;100.00;101395.06;5064189;28;20044;-67
2022/07/11 07:53:14;;;;;;;6.40;2.08;;;;;;;17.64;100.00;101405.19;5056131;28;20036;-67
2022/07/11 07:55:40;;;;;;;5.78;3.22;;;;;;;17.57;100.00;101392.41;5045078;28;20036;-67
2022/07/11 07:58:05;;;;;;;3.40;2.30;;;;;;;17.48;100.00;101395.56;5066123;28;20387;-67
2022/07/11 08:03:15;;;;;;;7.03;3.10;;;;;;;17.39;100.00;101381.09;5061815;28;20131;-67
2022/07/11 08:05:40;;;;;;;8.15;3.28;;;;;;;17.39;100.00;101381.09;5074894;28;20127;-68
2022/07/11 08:08:05;;;;;;;6.32;2.97;;;;;;;17.24;100.00;101345.69;5064985;28;20116;-67
2022/07/11 08:10:31;;;;;;;4.72;2.67;;;;;;;17.49;100.00;101376.03;5060359;28;20087;-67
2022/07/11 08:12:56;;;;;;;5.72;2.55;;;;;;;17.60;100.00;101382.44;5071922;28;20020;-67
2022/07/11 08:15:22;;;;;;;3.50;2.05;;;;;;;17.67;100.00;101390.88;5073654;28;20027;-67
2022/07/11 08:17:48;;;;;;;6.85;3.20;;;;;;;17.50;100.00;101373.28;5087149;28;20028;-67
2022/07/11 08:20:13;;;;;;;5.18;2.17;;;;;;;17.61;100.00;101396.53;5074799;28;20023;-67
2022/07/11 08:22:38;;;;;;;12.43;3.40;;;;;;;17.59;100.00;101394.00;5071802;28;20024;-67
2022/07/11 08:25:04;;;;;;;6.20;2.25;;;;;;;17.57;100.00;101400.38;5059875;28;20068;-67
2022/07/11 08:27:29;;;;;;;6.82;2.80;;;;;;;17.55;100.00;101396.91;5084780;28;20505;-67
2022/07/11 08:29:55;;;;;;;5.70;3.70;;;;;;;17.40;100.00;101409.38;5079374;28;20040;-67
2022/07/11 08:32:20;;;;;;;7.65;3.60;;;;;;;17.16;100.00;101384.31;5077141;28;20020;-67
2022/07/11 08:34:46;;;;;;;8.20;3.75;;;;;;;17.29;100.00;101404.72;5088069;28;20040;-67
2022/07/11 08:37:11;;;;;;;8.48;3.20;;;;;;;17.28;100.00;101407.47;5071948;28;20020;-67
2022/07/11 08:39:37;;;;;;;10.90;3.63;;;;;;;17.22;100.00;101400.72;5071477;28;20021;-67
2022/07/11 08:42:02;;;;;;;5.22;3.17;;;;;;;17.26;100.00;101402.25;5058762;28;20491;-67
2022/07/11 08:44:28;;;;;;;12.82;3.85;;;;;;;17.31;100.00;101394.84;5082886;28;20028;-67
2022/07/11 08:46:54;;;;;;;6.75;3.95;;;;;;;17.40;100.00;101393.44;5069904;28;20028;-67
2022/07/11 08:49:19;;;;;;;8.48;4.38;;;;;;;17.44;100.00;101386.13;5065033;28;20064;-67
2022/07/11 08:51:46;;;;;;;5.45;3.53;;;;;;;17.06;100.00;101365.44;5065395;28;20029;-67
2022/07/11 08:54:12;;;;;;;6.80;3.72;;;;;;;17.19;100.00;101394.75;5070719;28;20043;-67
2022/07/11 08:56:37;;;;;;;8.77;4.00;;;;;;;17.17;100.00;101391.31;5065788;28;20482;-67
2022/07/11 08:59:03;;;;;;;4.75;3.03;;;;;;;17.28;100.00;101403.00;5070232;28;20028;-67
2022/07/11 09:01:31;;;;;;;12.10;4.88;;;;;;;17.31;100.00;101409.91;5066038;28;20042;-67
2022/07/11 09:03:57;;;;;;;7.28;4.50;;;;;;;17.19;100.00;101395.59;5073158;28;20041;-67
2022/07/11 09:06:22;;;;;;;6.00;4.38;;;;;;;17.13;100.00;101396.00;5059714;28;20059;-67
2022/07/11 09:08:47;;;;;;;9.27;5.55;;;;;;;17.17;100.00;101402.78;5048775;28;20115;-67
2022/07/11 09:11:13;;;;;;;13.77;6.55;;;;;;;17.19;100.00;101400.91;5055848;28;20548;-67
2022/07/11 09:13:38;;;;;;;7.60;5.60;;;;;;;17.21;100.00;101409.63;5050005;28;20040;-67
2022/07/11 09:16:07;;;;;;;21.73;17.08;;;;;;;17.25;100.00;101407.66;5049111;28;20044;-67
2022/07/11 09:18:41;;;;;;;12.10;6.03;;;;;;;17.20;100.00;101397.28;5082409;28;20027;-67
2022/07/11 09:26:46;;;;;;;8.85;6.38;;;;;;;17.41;100.00;101412.84;5044442;28;20036;-67
2022/07/11 09:29:14;;;;;;;11.07;6.65;;;;;;;17.48;100.00;101412.38;5064211;28;20091;-67
2022/07/11 09:31:46;;;;;;;13.13;6.47;;;;;;;17.39;100.00;101412.97;5048031;28;20136;-67
2022/07/11 09:34:14;;;;;;;8.40;6.70;;;;;;;17.41;100.00;101402.22;5063146;28;20051;-67
2022/07/11 09:36:44;;;;;;;9.85;6.57;;;;;;;17.54;100.00;101406.69;5052479;28;20040;-68
2022/07/11 09:39:16;;;;;;;9.43;6.97;;;;;;;17.51;100.00;101390.94;5053011;28;20032;-67
2022/07/11 09:41:42;;;;;;;15.27;7.57;;;;;;;17.60;100.00;101405.50;5061786;28;20033;-67
2022/07/11 09:44:16;;;;;;;8.57;6.57;;;;;;;17.64;100.00;101399.03;5057432;28;20107;-67
2022/07/11 09:46:42;;;;;;;;;;;;;;;17.74;100.00;101405.47;5063687;28;20025;-67
2022/07/11 09:49:08;;;;;;;11.38;6.72;;;;;;;17.79;100.00;101398.03;5056311;28;19936;-68
2022/07/11 09:51:34;;;;;;;7.93;6.05;;;;;;;17.81;100.00;101393.50;5088435;28;20372;-67
2022/07/11 09:54:00;;;;;;;5.03;3.75;;;;;;;17.77;100.00;101398.16;5061574;28;20052;-67
2022/07/11 09:56:43;;;;;;;6.38;3.70;;;;;;;17.74;100.00;101408.13;5071916;28;20111;-67
2022/07/11 09:59:15;;;;;;;5.53;3.35;;;;;;;17.80;100.00;101402.41;5074147;28;20051;-67
2022/07/11 10:01:41;;;;;;;5.72;2.65;;;;;;;17.77;100.00;101398.16;5066931;28;20032;-67
2022/07/11 10:04:08;;;;;;;5.30;3.13;;;;;;;17.75;100.00;101401.84;5065183;28;20367;-67
2022/07/11 10:06:35;;;;;;;4.95;2.80;;;;;;;17.68;100.00;101392.53;5058852;28;20356;-67
2022/07/11 10:09:01;;;;;;;6.20;2.97;;;;;;;17.80;100.00;101402.41;5056013;28;20074;-67
2022/07/11 10:11:27;;;;;;;6.80;2.55;;;;;;;17.69;100.00;101383.63;5061819;28;20024;-67
2022/07/11 10:13:53;;;;;;;5.28;2.38;;;;;;;17.88;100.00;101402.75;5056029;28;20893;-67
2022/07/11 10:16:31;;;;;;;10.02;3.40;;;;;;;17.83;100.00;101410.19;5042366;28;20483;-67
2022/07/11 10:19:05;;;;;;;7.72;3.42;;;;;;;17.77;100.00;101407.94;5039127;28;20383;-67
2022/07/11 10:21:32;;;;;;;;;;;;;;;17.68;100.00;101414.66;5037751;28;20033;-67
2022/07/11 10:24:09;;;;;;;4.47;2.60;;;;;;;17.76;100.00;101411.53;5084109;27;20735;-68
2022/07/11 10:26:54;;;;;;;4.85;2.53;;;;;;;17.84;100.00;101399.44;5032384;28;20041;-66
2022/07/11 10:29:49;;;;;;;4.90;3.15;;;;;;;18.05;100.00;101417.63;5043818;28;20893;-66
2022/07/11 10:32:14;;;;;;;3.92;2.65;;;;;;;18.05;100.00;101418.47;5074951;27;20210;-66
2022/07/11 10:34:40;;;;;;;7.63;3.58;;;;;;;17.95;100.00;101414.72;5043371;28;20041;-66
2022/07/11 10:37:07;;;;;;;7.90;3.35;;;;;;;17.91;100.00;101428.31;5048660;28;20028;-66
2022/07/11 10:39:34;;;;;;;10.13;4.03;;;;;;;17.75;100.00;101425.78;5065178;28;20029;-66
2022/07/11 10:42:01;;;;;;;5.10;3.28;;;;;;;17.63;100.00;101422.09;5058572;28;20037;-67
2022/07/11 10:44:29;;;;;;;5.32;3.25;;;;;;;17.68;100.00;101424.44;5046223;28;20081;-67
2022/07/11 10:46:54;;;;;;;6.13;3.35;;;;;;;17.76;100.00;101424.81;5032572;28;21285;-67
2022/07/11 10:49:32;;;;;;;6.35;3.95;;;;;;;17.86;100.00;101428.59;5043163;28;20037;-67
2022/07/11 10:52:04;;;;;;;7.53;3.85;;;;;;;17.86;100.00;101407.34;5039767;28;20060;-66
2022/07/11 10:54:44;;;;;;;13.07;5.07;;;;;;;17.95;100.00;101422.69;5067286;28;20037;-66
2022/07/11 10:57:23;;;;;;;6.68;3.90;;;;;;;18.01;100.00;101421.47;5062661;28;20124;-67
2022/07/11 11:00:10;;;;;;;6.57;4.10;;;;;;;18.08;100.00;101417.44;5041586;28;20499;-66
2022/07/11 11:03:03;;;;;;;8.43;4.22;;;;;;;18.21;100.00;101418.34;5054354;28;20060;-67
2022/07/11 11:05:48;;;;;;;6.07;2.88;;;;;;;18.52;100.00;101417.22;5086398;28;20390;-67
2022/07/11 11:08:40;;;;;;;5.55;3.67;;;;;;;18.91;100.00;101414.50;5088522;28;20036;-66
2022/07/11 11:11:08;;;;;;;8.73;4.05;;;;;;;19.21;100.00;101406.19;5058702;28;20040;-67
2022/07/11 11:13:35;;;;;;;6.00;3.33;;;;;;;19.18;100.00;101407.28;5080168;28;20174;-66
2022/07/11 11:16:02;;;;;;;8.75;3.05;;;;;;;19.43;100.00;101395.78;5055776;28;20071;-67
2022/07/11 11:18:35;;;;;;;4.07;2.80;;;;;;;19.50;100.00;101412.19;5060456;28;20475;-66
2022/07/11 11:21:00;;;;;;;4.55;2.90;;;;;;;19.54;100.00;101413.66;5066202;28;20082;-66
2022/07/11 11:23:35;;;;;;;5.75;2.53;;;;;;;19.78;100.00;101411.91;5047354;28;20032;-67